sensor_id;sensor_type;location;lat;lon;timestamp;P1;durP1;ratioP1;P2;durP2;ratioP2
7957;SDS011;4024;52.172;5.378;2022-10-17T00:00:42;9.57;;;7.37;;
7957;SDS011;4024;52.172;5.378;2022-10-17T00:03:08;10.17;;;7.27;;
7957;SDS011;4024;52.172;5.378;2022-10-17T00:05:37;10.63;;;8.00;;
7957;SDS011;4024;52.172;5.378;2022-10-17T00:08:08;9.07;;;7.60;;
7957;SDS011;4024;52.172;5.378;2022-10-17T00:10:35;9.83;;;8.47;;
7957;SDS011;4024;52.172;5.378;2022-10-17T00:13:01;11.13;;;8.27;;
7957;SDS011;4024;52.172;5.378;2022-10-17T00:15:28;9.17;;;8.20;;
7957;SDS011;4024;52.172;5.378;2022-10-17T00:17:53;11.40;;;7.73;;
7957;SDS011;4024;52.172;5.378;2022-10-17T00:20:19;9.47;;;8.47;;
7957;SDS011;4024;52.172;5.378;2022-10-17T00:22:44;8.80;;;7.90;;
7957;SDS011;4024;52.172;5.378;2022-10-17T00:25:10;9.27;;;8.27;;
7957;SDS011;4024;52.172;5.378;2022-10-17T00:27:37;10.67;;;8.53;;
7957;SDS011;4024;52.172;5.378;2022-10-17T00:30:05;10.23;;;7.97;;
7957;SDS011;4024;52.172;5.378;2022-10-17T00:32:32;8.93;;;8.03;;
7957;SDS011;4024;52.172;5.378;2022-10-17T00:34:57;10.20;;;8.67;;
7957;SDS011;4024;52.172;5.378;2022-10-17T00:37:23;10.27;;;8.10;;
7957;SDS011;4024;52.172;5.378;2022-10-17T00:39:49;9.90;;;8.00;;
7957;SDS011;4024;52.172;5.378;2022-10-17T00:42:15;9.60;;;7.77;;
7957;SDS011;4024;52.172;5.378;2022-10-17T00:47:10;11.23;;;8.07;;
7957;SDS011;4024;52.172;5.378;2022-10-17T00:49:43;11.17;;;8.20;;
7957;SDS011;4024;52.172;5.378;2022-10-17T00:52:20;8.80;;;7.97;;
7957;SDS011;4024;52.172;5.378;2022-10-17T00:54:50;8.50;;;7.70;;
7957;SDS011;4024;52.172;5.378;2022-10-17T00:57:19;8.70;;;7.80;;
7957;SDS011;4024;52.172;5.378;2022-10-17T00:59:46;9.20;;;8.27;;
7957;SDS011;4024;52.172;5.378;2022-10-17T01:02:16;9.37;;;8.40;;
7957;SDS011;4024;52.172;5.378;2022-10-17T01:04:44;9.47;;;8.57;;
7957;SDS011;4024;52.172;5.378;2022-10-17T01:07:12;10.37;;;8.70;;
7957;SDS011;4024;52.172;5.378;2022-10-17T01:09:38;9.50;;;8.60;;
7957;SDS011;4024;52.172;5.378;2022-10-17T01:25:46;10.40;;;8.63;;
7957;SDS011;4024;52.172;5.378;2022-10-17T01:31:19;10.80;;;9.70;;
7957;SDS011;4024;52.172;5.378;2022-10-17T01:33:53;10.80;;;9.63;;
7957;SDS011;4024;52.172;5.378;2022-10-17T01:36:29;12.50;;;9.10;;
7957;SDS011;4024;52.172;5.378;2022-10-17T01:39:01;11.57;;;9.57;;
7957;SDS011;4024;52.172;5.378;2022-10-17T01:41:40;11.97;;;9.17;;
7957;SDS011;4024;52.172;5.378;2022-10-17T01:44:45;12.07;;;9.70;;
7957;SDS011;4024;52.172;5.378;2022-10-17T01:47:28;14.57;;;9.73;;
7957;SDS011;4024;52.172;5.378;2022-10-17T01:49:58;11.57;;;9.43;;
7957;SDS011;4024;52.172;5.378;2022-10-17T01:52:32;11.87;;;10.57;;
7957;SDS011;4024;52.172;5.378;2022-10-17T01:55:23;11.87;;;10.03;;
7957;SDS011;4024;52.172;5.378;2022-10-17T01:57:57;12.43;;;10.00;;
7957;SDS011;4024;52.172;5.378;2022-10-17T02:00:28;11.20;;;9.93;;
7957;SDS011;4024;52.172;5.378;2022-10-17T02:03:00;13.43;;;10.43;;
7957;SDS011;4024;52.172;5.378;2022-10-17T02:05:30;11.33;;;9.90;;
7957;SDS011;4024;52.172;5.378;2022-10-17T02:07:59;13.07;;;10.10;;
7957;SDS011;4024;52.172;5.378;2022-10-17T02:10:30;12.67;;;10.70;;
7957;SDS011;4024;52.172;5.378;2022-10-17T02:21:02;12.33;;;9.70;;
7957;SDS011;4024;52.172;5.378;2022-10-17T02:23:36;13.13;;;11.43;;
7957;SDS011;4024;52.172;5.378;2022-10-17T02:26:09;16.47;;;10.77;;
7957;SDS011;4024;52.172;5.378;2022-10-17T02:28:45;11.97;;;10.77;;
7957;SDS011;4024;52.172;5.378;2022-10-17T02:31:41;13.13;;;11.40;;
7957;SDS011;4024;52.172;5.378;2022-10-17T02:37:14;12.13;;;10.93;;
7957;SDS011;4024;52.172;5.378;2022-10-17T02:39:46;11.67;;;10.30;;
7957;SDS011;4024;52.172;5.378;2022-10-17T02:42:13;12.67;;;11.20;;
7957;SDS011;4024;52.172;5.378;2022-10-17T02:44:40;13.53;;;11.67;;
7957;SDS011;4024;52.172;5.378;2022-10-17T02:47:19;15.53;;;11.20;;
7957;SDS011;4024;52.172;5.378;2022-10-17T02:49:50;12.17;;;10.87;;
7957;SDS011;4024;52.172;5.378;2022-10-17T02:52:35;13.00;;;11.53;;
7957;SDS011;4024;52.172;5.378;2022-10-17T02:58:01;12.07;;;10.70;;
7957;SDS011;4024;52.172;5.378;2022-10-17T03:00:34;14.57;;;11.67;;
7957;SDS011;4024;52.172;5.378;2022-10-17T03:03:08;15.27;;;11.30;;
7957;SDS011;4024;52.172;5.378;2022-10-17T03:05:50;11.73;;;10.53;;
7957;SDS011;4024;52.172;5.378;2022-10-17T03:08:16;14.03;;;11.10;;
7957;SDS011;4024;52.172;5.378;2022-10-17T03:10:42;12.83;;;10.97;;
7957;SDS011;4024;52.172;5.378;2022-10-17T03:13:08;14.33;;;11.37;;
7957;SDS011;4024;52.172;5.378;2022-10-17T03:15:33;12.13;;;10.83;;
7957;SDS011;4024;52.172;5.378;2022-10-17T03:17:59;11.90;;;10.63;;
7957;SDS011;4024;52.172;5.378;2022-10-17T03:20:24;15.07;;;11.83;;
7957;SDS011;4024;52.172;5.378;2022-10-17T03:22:50;11.97;;;10.77;;
7957;SDS011;4024;52.172;5.378;2022-10-17T03:25:16;12.20;;;10.93;;
7957;SDS011;4024;52.172;5.378;2022-10-17T03:27:41;12.37;;;11.17;;
7957;SDS011;4024;52.172;5.378;2022-10-17T03:30:07;14.27;;;10.83;;
7957;SDS011;4024;52.172;5.378;2022-10-17T03:32:33;12.77;;;11.17;;
7957;SDS011;4024;52.172;5.378;2022-10-17T03:34:59;15.07;;;11.00;;
7957;SDS011;4024;52.172;5.378;2022-10-17T03:37:25;12.90;;;11.20;;
7957;SDS011;4024;52.172;5.378;2022-10-17T03:39:50;13.17;;;11.03;;
7957;SDS011;4024;52.172;5.378;2022-10-17T03:42:16;14.23;;;12.37;;
7957;SDS011;4024;52.172;5.378;2022-10-17T03:44:41;13.07;;;11.57;;
7957;SDS011;4024;52.172;5.378;2022-10-17T03:47:07;15.23;;;11.17;;
7957;SDS011;4024;52.172;5.378;2022-10-17T03:49:33;14.63;;;12.00;;
7957;SDS011;4024;52.172;5.378;2022-10-17T03:51:58;11.23;;;10.13;;
7957;SDS011;4024;52.172;5.378;2022-10-17T03:54:24;13.90;;;11.13;;
7957;SDS011;4024;52.172;5.378;2022-10-17T03:56:49;11.30;;;10.20;;
7957;SDS011;4024;52.172;5.378;2022-10-17T03:59:15;15.00;;;11.53;;
7957;SDS011;4024;52.172;5.378;2022-10-17T04:01:41;13.23;;;10.70;;
7957;SDS011;4024;52.172;5.378;2022-10-17T04:04:07;13.73;;;10.77;;
7957;SDS011;4024;52.172;5.378;2022-10-17T04:06:33;16.13;;;10.80;;
7957;SDS011;4024;52.172;5.378;2022-10-17T04:08:59;12.37;;;10.93;;
7957;SDS011;4024;52.172;5.378;2022-10-17T04:11:26;12.43;;;10.30;;
7957;SDS011;4024;52.172;5.378;2022-10-17T04:13:55;11.80;;;10.60;;
7957;SDS011;4024;52.172;5.378;2022-10-17T04:16:21;11.37;;;10.27;;
7957;SDS011;4024;52.172;5.378;2022-10-17T04:18:51;11.23;;;10.13;;
7957;SDS011;4024;52.172;5.378;2022-10-17T04:21:19;12.93;;;9.80;;
7957;SDS011;4024;52.172;5.378;2022-10-17T04:23:45;12.73;;;11.27;;
7957;SDS011;4024;52.172;5.378;2022-10-17T04:26:10;12.13;;;10.83;;
7957;SDS011;4024;52.172;5.378;2022-10-17T04:28:36;12.70;;;10.50;;
7957;SDS011;4024;52.172;5.378;2022-10-17T04:31:03;11.23;;;9.97;;
7957;SDS011;4024;52.172;5.378;2022-10-17T04:33:31;10.97;;;9.87;;
7957;SDS011;4024;52.172;5.378;2022-10-17T04:35:57;13.10;;;10.50;;
7957;SDS011;4024;52.172;5.378;2022-10-17T04:38:27;12.67;;;10.70;;
7957;SDS011;4024;52.172;5.378;2022-10-17T04:40:57;12.00;;;9.97;;
7957;SDS011;4024;52.172;5.378;2022-10-17T04:43:26;11.90;;;10.60;;
7957;SDS011;4024;52.172;5.378;2022-10-17T04:45:52;11.73;;;9.93;;
7957;SDS011;4024;52.172;5.378;2022-10-17T04:48:17;12.47;;;10.23;;
7957;SDS011;4024;52.172;5.378;2022-10-17T04:50:51;12.53;;;10.33;;
7957;SDS011;4024;52.172;5.378;2022-10-17T04:53:18;12.13;;;10.87;;
7957;SDS011;4024;52.172;5.378;2022-10-17T04:55:44;15.00;;;10.43;;
7957;SDS011;4024;52.172;5.378;2022-10-17T04:58:09;13.17;;;10.43;;
7957;SDS011;4024;52.172;5.378;2022-10-17T05:00:35;11.67;;;10.17;;
7957;SDS011;4024;52.172;5.378;2022-10-17T05:03:00;11.70;;;10.50;;
7957;SDS011;4024;52.172;5.378;2022-10-17T05:05:26;11.83;;;9.60;;
7957;SDS011;4024;52.172;5.378;2022-10-17T05:07:52;11.37;;;10.03;;
7957;SDS011;4024;52.172;5.378;2022-10-17T05:10:17;10.43;;;9.43;;
7957;SDS011;4024;52.172;5.378;2022-10-17T05:12:43;14.97;;;10.60;;
7957;SDS011;4024;52.172;5.378;2022-10-17T05:15:10;11.63;;;9.80;;
7957;SDS011;4024;52.172;5.378;2022-10-17T05:17:35;14.27;;;9.87;;
7957;SDS011;4024;52.172;5.378;2022-10-17T05:20:01;13.17;;;10.53;;
7957;SDS011;4024;52.172;5.378;2022-10-17T05:22:27;12.07;;;10.07;;
7957;SDS011;4024;52.172;5.378;2022-10-17T05:24:53;11.53;;;10.33;;
7957;SDS011;4024;52.172;5.378;2022-10-17T05:27:18;10.37;;;9.33;;
7957;SDS011;4024;52.172;5.378;2022-10-17T05:29:44;11.50;;;9.53;;
7957;SDS011;4024;52.172;5.378;2022-10-17T05:32:09;11.00;;;9.80;;
7957;SDS011;4024;52.172;5.378;2022-10-17T05:34:35;10.77;;;9.63;;
7957;SDS011;4024;52.172;5.378;2022-10-17T05:37:01;10.77;;;9.07;;
7957;SDS011;4024;52.172;5.378;2022-10-17T05:39:26;13.77;;;9.90;;
7957;SDS011;4024;52.172;5.378;2022-10-17T05:41:52;10.73;;;9.63;;
7957;SDS011;4024;52.172;5.378;2022-10-17T05:44:17;11.00;;;9.93;;
7957;SDS011;4024;52.172;5.378;2022-10-17T05:46:43;11.30;;;9.63;;
7957;SDS011;4024;52.172;5.378;2022-10-17T05:49:09;10.77;;;9.60;;
7957;SDS011;4024;52.172;5.378;2022-10-17T05:51:34;10.83;;;9.70;;
7957;SDS011;4024;52.172;5.378;2022-10-17T05:54:00;13.07;;;9.97;;
7957;SDS011;4024;52.172;5.378;2022-10-17T05:56:26;13.97;;;10.93;;
7957;SDS011;4024;52.172;5.378;2022-10-17T05:58:51;12.23;;;9.27;;
7957;SDS011;4024;52.172;5.378;2022-10-17T06:01:17;11.90;;;10.17;;
7957;SDS011;4024;52.172;5.378;2022-10-17T06:03:43;12.57;;;9.50;;
7957;SDS011;4024;52.172;5.378;2022-10-17T06:06:09;11.77;;;10.33;;
7957;SDS011;4024;52.172;5.378;2022-10-17T06:08:37;11.13;;;9.90;;
7957;SDS011;4024;52.172;5.378;2022-10-17T06:11:03;12.03;;;10.70;;
7957;SDS011;4024;52.172;5.378;2022-10-17T06:13:29;10.93;;;9.83;;
7957;SDS011;4024;52.172;5.378;2022-10-17T06:15:55;11.97;;;9.77;;
7957;SDS011;4024;52.172;5.378;2022-10-17T06:18:21;11.10;;;9.30;;
7957;SDS011;4024;52.172;5.378;2022-10-17T06:20:47;11.80;;;10.40;;
7957;SDS011;4024;52.172;5.378;2022-10-17T06:23:12;11.57;;;10.33;;
7957;SDS011;4024;52.172;5.378;2022-10-17T06:25:38;10.80;;;9.70;;
7957;SDS011;4024;52.172;5.378;2022-10-17T06:28:04;12.37;;;10.20;;
7957;SDS011;4024;52.172;5.378;2022-10-17T06:30:29;11.43;;;10.23;;
7957;SDS011;4024;52.172;5.378;2022-10-17T06:32:55;11.93;;;10.33;;
7957;SDS011;4024;52.172;5.378;2022-10-17T06:35:21;14.10;;;9.97;;
7957;SDS011;4024;52.172;5.378;2022-10-17T06:37:46;13.90;;;11.00;;
7957;SDS011;4024;52.172;5.378;2022-10-17T06:40:12;10.87;;;9.30;;
7957;SDS011;4024;52.172;5.378;2022-10-17T06:42:41;12.90;;;10.53;;
7957;SDS011;4024;52.172;5.378;2022-10-17T06:45:07;12.03;;;9.87;;
7957;SDS011;4024;52.172;5.378;2022-10-17T06:47:33;12.63;;;9.90;;
7957;SDS011;4024;52.172;5.378;2022-10-17T06:49:59;11.73;;;10.47;;
7957;SDS011;4024;52.172;5.378;2022-10-17T06:52:25;11.30;;;10.07;;
7957;SDS011;4024;52.172;5.378;2022-10-17T06:54:50;11.23;;;9.80;;
7957;SDS011;4024;52.172;5.378;2022-10-17T06:57:16;11.87;;;10.37;;
7957;SDS011;4024;52.172;5.378;2022-10-17T06:59:42;11.80;;;10.53;;
7957;SDS011;4024;52.172;5.378;2022-10-17T07:02:10;11.13;;;9.53;;
7957;SDS011;4024;52.172;5.378;2022-10-17T07:04:36;10.93;;;9.83;;
7957;SDS011;4024;52.172;5.378;2022-10-17T07:07:02;10.67;;;9.57;;
7957;SDS011;4024;52.172;5.378;2022-10-17T07:09:29;12.60;;;9.63;;
7957;SDS011;4024;52.172;5.378;2022-10-17T07:11:55;10.80;;;9.50;;
7957;SDS011;4024;52.172;5.378;2022-10-17T07:14:21;11.77;;;10.00;;
7957;SDS011;4024;52.172;5.378;2022-10-17T07:16:47;12.47;;;9.83;;
7957;SDS011;4024;52.172;5.378;2022-10-17T07:19:13;10.10;;;9.00;;
7957;SDS011;4024;52.172;5.378;2022-10-17T07:21:39;12.70;;;10.17;;
7957;SDS011;4024;52.172;5.378;2022-10-17T07:24:05;13.87;;;10.40;;
7957;SDS011;4024;52.172;5.378;2022-10-17T07:26:31;13.83;;;9.70;;
7957;SDS011;4024;52.172;5.378;2022-10-17T07:28:57;12.37;;;9.83;;
7957;SDS011;4024;52.172;5.378;2022-10-17T07:31:23;12.13;;;9.90;;
7957;SDS011;4024;52.172;5.378;2022-10-17T07:33:49;9.83;;;8.83;;
7957;SDS011;4024;52.172;5.378;2022-10-17T07:36:15;11.00;;;9.10;;
7957;SDS011;4024;52.172;5.378;2022-10-17T07:38:42;9.80;;;8.83;;
7957;SDS011;4024;52.172;5.378;2022-10-17T07:41:08;11.23;;;9.03;;
7957;SDS011;4024;52.172;5.378;2022-10-17T07:43:36;11.23;;;9.27;;
7957;SDS011;4024;52.172;5.378;2022-10-17T07:46:03;10.50;;;8.90;;
7957;SDS011;4024;52.172;5.378;2022-10-17T07:48:29;10.73;;;8.60;;
7957;SDS011;4024;52.172;5.378;2022-10-17T07:50:55;13.07;;;9.30;;
7957;SDS011;4024;52.172;5.378;2022-10-17T07:53:21;11.73;;;9.07;;
7957;SDS011;4024;52.172;5.378;2022-10-17T07:55:46;12.20;;;8.87;;
7957;SDS011;4024;52.172;5.378;2022-10-17T07:58:13;14.33;;;9.80;;
7957;SDS011;4024;52.172;5.378;2022-10-17T08:00:40;9.73;;;8.73;;
7957;SDS011;4024;52.172;5.378;2022-10-17T08:03:05;10.10;;;9.07;;
7957;SDS011;4024;52.172;5.378;2022-10-17T08:05:31;13.30;;;9.10;;
7957;SDS011;4024;52.172;5.378;2022-10-17T08:07:57;9.93;;;8.77;;
7957;SDS011;4024;52.172;5.378;2022-10-17T08:10:23;11.73;;;8.83;;
7957;SDS011;4024;52.172;5.378;2022-10-17T08:12:52;12.97;;;9.47;;
7957;SDS011;4024;52.172;5.378;2022-10-17T08:15:18;10.00;;;9.00;;
7957;SDS011;4024;52.172;5.378;2022-10-17T08:17:43;10.77;;;8.90;;
7957;SDS011;4024;52.172;5.378;2022-10-17T08:20:09;9.93;;;8.80;;
7957;SDS011;4024;52.172;5.378;2022-10-17T08:22:35;12.60;;;8.80;;
7957;SDS011;4024;52.172;5.378;2022-10-17T08:25:01;11.53;;;9.03;;
7957;SDS011;4024;52.172;5.378;2022-10-17T08:27:26;15.17;;;9.63;;
7957;SDS011;4024;52.172;5.378;2022-10-17T08:29:53;12.97;;;8.93;;
7957;SDS011;4024;52.172;5.378;2022-10-17T08:32:19;12.27;;;9.10;;
7957;SDS011;4024;52.172;5.378;2022-10-17T08:34:49;10.80;;;8.97;;
7957;SDS011;4024;52.172;5.378;2022-10-17T08:37:14;13.10;;;8.90;;
7957;SDS011;4024;52.172;5.378;2022-10-17T08:39:40;12.43;;;9.70;;
7957;SDS011;4024;52.172;5.378;2022-10-17T08:47:33;13.87;;;9.03;;
7957;SDS011;4024;52.172;5.378;2022-10-17T08:50:03;11.77;;;8.60;;
7957;SDS011;4024;52.172;5.378;2022-10-17T08:55:03;14.67;;;9.23;;
7957;SDS011;4024;52.172;5.378;2022-10-17T08:57:35;10.13;;;8.53;;
7957;SDS011;4024;52.172;5.378;2022-10-17T09:00:01;11.67;;;8.60;;
7957;SDS011;4024;52.172;5.378;2022-10-17T09:11:52;10.97;;;8.77;;
7957;SDS011;4024;52.172;5.378;2022-10-17T09:17:59;11.80;;;8.50;;
7957;SDS011;4024;52.172;5.378;2022-10-17T09:20:16;9.87;;;8.87;;
7957;SDS011;4024;52.172;5.378;2022-10-17T09:23:09;10.33;;;8.30;;
7957;SDS011;4024;52.172;5.378;2022-10-17T09:25:43;12.03;;;8.63;;
7957;SDS011;4024;52.172;5.378;2022-10-17T09:28:19;12.50;;;8.73;;
7957;SDS011;4024;52.172;5.378;2022-10-17T09:31:09;9.83;;;8.83;;
7957;SDS011;4024;52.172;5.378;2022-10-17T09:33:39;9.73;;;8.73;;
7957;SDS011;4024;52.172;5.378;2022-10-17T09:36:09;10.90;;;9.27;;
7957;SDS011;4024;52.172;5.378;2022-10-17T09:38:40;12.97;;;9.57;;
7957;SDS011;4024;52.172;5.378;2022-10-17T09:41:18;11.17;;;9.20;;
7957;SDS011;4024;52.172;5.378;2022-10-17T09:43:58;10.33;;;9.07;;
7957;SDS011;4024;52.172;5.378;2022-10-17T09:46:37;12.63;;;9.40;;
7957;SDS011;4024;52.172;5.378;2022-10-17T09:51:53;10.80;;;9.77;;
7957;SDS011;4024;52.172;5.378;2022-10-17T09:54:21;12.67;;;8.83;;
7957;SDS011;4024;52.172;5.378;2022-10-17T09:56:57;9.87;;;8.87;;
7957;SDS011;4024;52.172;5.378;2022-10-17T09:59:43;10.40;;;9.00;;
7957;SDS011;4024;52.172;5.378;2022-10-17T10:04:50;13.63;;;9.20;;
7957;SDS011;4024;52.172;5.378;2022-10-17T10:07:21;12.83;;;9.40;;
7957;SDS011;4024;52.172;5.378;2022-10-17T10:09:49;10.20;;;8.87;;
7957;SDS011;4024;52.172;5.378;2022-10-17T10:12:25;11.57;;;9.47;;
7957;SDS011;4024;52.172;5.378;2022-10-17T10:14:55;13.83;;;9.00;;
7957;SDS011;4024;52.172;5.378;2022-10-17T10:20:23;11.63;;;8.77;;
7957;SDS011;4024;52.172;5.378;2022-10-17T10:23:04;10.03;;;8.63;;
7957;SDS011;4024;52.172;5.378;2022-10-17T10:25:47;10.03;;;8.27;;
7957;SDS011;4024;52.172;5.378;2022-10-17T10:28:18;9.30;;;8.33;;
7957;SDS011;4024;52.172;5.378;2022-10-17T10:30:46;8.83;;;7.93;;
7957;SDS011;4024;52.172;5.378;2022-10-17T10:33:14;9.60;;;8.60;;
7957;SDS011;4024;52.172;5.378;2022-10-17T10:35:40;8.37;;;7.43;;
7957;SDS011;4024;52.172;5.378;2022-10-17T10:38:09;10.37;;;7.97;;
7957;SDS011;4024;52.172;5.378;2022-10-17T10:40:47;9.00;;;8.00;;
7957;SDS011;4024;52.172;5.378;2022-10-17T10:43:32;8.90;;;7.73;;
7957;SDS011;4024;52.172;5.378;2022-10-17T10:46:17;8.53;;;7.73;;
7957;SDS011;4024;52.172;5.378;2022-10-17T10:51:16;8.13;;;7.40;;
7957;SDS011;4024;52.172;5.378;2022-10-17T10:53:59;8.63;;;7.30;;
7957;SDS011;4024;52.172;5.378;2022-10-17T10:56:39;9.70;;;8.20;;
7957;SDS011;4024;52.172;5.378;2022-10-17T10:59:13;7.27;;;6.57;;
7957;SDS011;4024;52.172;5.378;2022-10-17T11:02:02;7.73;;;6.97;;
7957;SDS011;4024;52.172;5.378;2022-10-17T11:07:17;7.77;;;6.60;;
7957;SDS011;4024;52.172;5.378;2022-10-17T11:09:52;7.03;;;6.33;;
7957;SDS011;4024;52.172;5.378;2022-10-17T11:18:05;7.20;;;6.60;;
7957;SDS011;4024;52.172;5.378;2022-10-17T11:23:16;8.03;;;7.00;;
7957;SDS011;4024;52.172;5.378;2022-10-17T11:26:07;10.90;;;7.40;;
7957;SDS011;4024;52.172;5.378;2022-10-17T11:28:37;7.60;;;6.90;;
7957;SDS011;4024;52.172;5.378;2022-10-17T11:31:08;8.17;;;7.40;;
7957;SDS011;4024;52.172;5.378;2022-10-17T11:36:16;7.67;;;6.97;;
7957;SDS011;4024;52.172;5.378;2022-10-17T11:38:47;12.47;;;7.43;;
7957;SDS011;4024;52.172;5.378;2022-10-17T11:41:28;8.77;;;7.93;;
7957;SDS011;4024;52.172;5.378;2022-10-17T11:46:24;7.47;;;6.77;;
7957;SDS011;4024;52.172;5.378;2022-10-17T11:51:44;7.53;;;6.80;;
7957;SDS011;4024;52.172;5.378;2022-10-17T11:54:17;7.77;;;7.07;;
7957;SDS011;4024;52.172;5.378;2022-10-17T12:02:03;7.93;;;6.83;;
7957;SDS011;4024;52.172;5.378;2022-10-17T12:04:51;8.13;;;7.33;;
7957;SDS011;4024;52.172;5.378;2022-10-17T12:08:04;7.20;;;6.57;;
7957;SDS011;4024;52.172;5.378;2022-10-17T12:10:36;7.97;;;7.27;;
7957;SDS011;4024;52.172;5.378;2022-10-17T12:15:51;7.97;;;7.27;;
7957;SDS011;4024;52.172;5.378;2022-10-17T12:18:17;8.03;;;7.33;;
7957;SDS011;4024;52.172;5.378;2022-10-17T12:20:43;8.77;;;7.87;;
7957;SDS011;4024;52.172;5.378;2022-10-17T12:23:30;8.03;;;7.20;;
7957;SDS011;4024;52.172;5.378;2022-10-17T12:26:03;8.37;;;7.57;;
7957;SDS011;4024;52.172;5.378;2022-10-17T12:33:57;11.83;;;7.63;;
7957;SDS011;4024;52.172;5.378;2022-10-17T12:46:44;5.50;;;4.90;;
7957;SDS011;4024;52.172;5.378;2022-10-17T12:54:54;4.83;;;3.97;;
7957;SDS011;4024;52.172;5.378;2022-10-17T13:00:19;4.50;;;4.10;;
7957;SDS011;4024;52.172;5.378;2022-10-17T13:02:53;4.50;;;3.80;;
7957;SDS011;4024;52.172;5.378;2022-10-17T13:05:23;4.40;;;3.90;;
7957;SDS011;4024;52.172;5.378;2022-10-17T13:08:02;4.83;;;4.00;;
7957;SDS011;4024;52.172;5.378;2022-10-17T13:10:35;4.33;;;3.80;;
7957;SDS011;4024;52.172;5.378;2022-10-17T13:13:09;6.67;;;3.83;;
7957;SDS011;4024;52.172;5.378;2022-10-17T13:15:49;5.60;;;4.00;;
7957;SDS011;4024;52.172;5.378;2022-10-17T13:18:18;4.50;;;3.97;;
7957;SDS011;4024;52.172;5.378;2022-10-17T13:20:59;4.50;;;4.10;;
7957;SDS011;4024;52.172;5.378;2022-10-17T13:23:38;5.20;;;4.37;;
7957;SDS011;4024;52.172;5.378;2022-10-17T13:26:11;4.90;;;4.40;;
7957;SDS011;4024;52.172;5.378;2022-10-17T13:29:01;6.93;;;4.80;;
7957;SDS011;4024;52.172;5.378;2022-10-17T13:31:36;5.30;;;4.80;;
7957;SDS011;4024;52.172;5.378;2022-10-17T13:34:04;7.57;;;5.13;;
7957;SDS011;4024;52.172;5.378;2022-10-17T13:36:38;5.53;;;5.00;;
7957;SDS011;4024;52.172;5.378;2022-10-17T13:39:08;6.73;;;4.60;;
7957;SDS011;4024;52.172;5.378;2022-10-17T13:41:37;5.67;;;4.63;;
7957;SDS011;4024;52.172;5.378;2022-10-17T13:44:10;6.23;;;4.60;;
7957;SDS011;4024;52.172;5.378;2022-10-17T13:46:49;5.70;;;5.20;;
7957;SDS011;4024;52.172;5.378;2022-10-17T13:49:17;5.40;;;4.90;;
7957;SDS011;4024;52.172;5.378;2022-10-17T13:51:53;6.40;;;5.80;;
7957;SDS011;4024;52.172;5.378;2022-10-17T13:57:15;6.80;;;5.70;;
7957;SDS011;4024;52.172;5.378;2022-10-17T13:59:44;6.83;;;5.93;;
7957;SDS011;4024;52.172;5.378;2022-10-17T14:02:14;6.80;;;6.10;;
7957;SDS011;4024;52.172;5.378;2022-10-17T14:04:42;6.87;;;6.17;;
7957;SDS011;4024;52.172;5.378;2022-10-17T14:07:25;7.07;;;6.37;;
7957;SDS011;4024;52.172;5.378;2022-10-17T14:10:17;7.93;;;7.03;;
7957;SDS011;4024;52.172;5.378;2022-10-17T14:12:50;8.70;;;7.17;;
7957;SDS011;4024;52.172;5.378;2022-10-17T14:15:17;7.70;;;6.93;;
7957;SDS011;4024;52.172;5.378;2022-10-17T14:17:43;8.30;;;7.23;;
7957;SDS011;4024;52.172;5.378;2022-10-17T14:20:17;8.37;;;7.50;;
7957;SDS011;4024;52.172;5.378;2022-10-17T14:22:44;7.87;;;7.17;;
7957;SDS011;4024;52.172;5.378;2022-10-17T14:25:30;8.03;;;7.23;;
7957;SDS011;4024;52.172;5.378;2022-10-17T14:30:37;8.20;;;7.33;;
7957;SDS011;4024;52.172;5.378;2022-10-17T14:33:17;9.20;;;7.47;;
7957;SDS011;4024;52.172;5.378;2022-10-17T14:35:48;8.93;;;7.40;;
7957;SDS011;4024;52.172;5.378;2022-10-17T14:38:15;8.70;;;7.90;;
7957;SDS011;4024;52.172;5.378;2022-10-17T14:40:48;11.83;;;7.77;;
7957;SDS011;4024;52.172;5.378;2022-10-17T14:43:18;11.47;;;8.23;;
7957;SDS011;4024;52.172;5.378;2022-10-17T14:45:46;8.90;;;7.30;;
7957;SDS011;4024;52.172;5.378;2022-10-17T14:48:13;10.43;;;8.00;;
7957;SDS011;4024;52.172;5.378;2022-10-17T14:50:41;12.57;;;8.00;;
7957;SDS011;4024;52.172;5.378;2022-10-17T14:53:27;8.80;;;7.90;;
7957;SDS011;4024;52.172;5.378;2022-10-17T14:55:57;9.27;;;8.43;;
7957;SDS011;4024;52.172;5.378;2022-10-17T14:58:25;9.03;;;8.13;;
7957;SDS011;4024;52.172;5.378;2022-10-17T15:00:53;11.93;;;8.73;;
7957;SDS011;4024;52.172;5.378;2022-10-17T15:03:19;10.53;;;8.27;;
7957;SDS011;4024;52.172;5.378;2022-10-17T15:05:45;10.43;;;8.03;;
7957;SDS011;4024;52.172;5.378;2022-10-17T15:08:15;9.17;;;8.37;;
7957;SDS011;4024;52.172;5.378;2022-10-17T15:10:43;8.73;;;7.93;;
7957;SDS011;4024;52.172;5.378;2022-10-17T15:13:09;11.40;;;8.63;;
7957;SDS011;4024;52.172;5.378;2022-10-17T15:15:36;9.90;;;8.83;;
7957;SDS011;4024;52.172;5.378;2022-10-17T15:18:03;10.80;;;8.50;;
7957;SDS011;4024;52.172;5.378;2022-10-17T15:20:30;9.63;;;8.23;;
7957;SDS011;4024;52.172;5.378;2022-10-17T15:22:58;8.73;;;7.93;;
7957;SDS011;4024;52.172;5.378;2022-10-17T15:25:25;11.87;;;8.03;;
7957;SDS011;4024;52.172;5.378;2022-10-17T15:27:51;10.77;;;8.20;;
7957;SDS011;4024;52.172;5.378;2022-10-17T15:30:21;8.83;;;7.90;;
7957;SDS011;4024;52.172;5.378;2022-10-17T15:32:50;11.60;;;8.23;;
7957;SDS011;4024;52.172;5.378;2022-10-17T15:35:16;11.23;;;8.13;;
7957;SDS011;4024;52.172;5.378;2022-10-17T15:37:42;9.57;;;7.73;;
7957;SDS011;4024;52.172;5.378;2022-10-17T15:40:15;9.47;;;7.33;;
7957;SDS011;4024;52.172;5.378;2022-10-17T15:42:46;10.57;;;7.67;;
7957;SDS011;4024;52.172;5.378;2022-10-17T15:45:12;9.10;;;7.97;;
7957;SDS011;4024;52.172;5.378;2022-10-17T15:47:40;10.23;;;7.40;;
7957;SDS011;4024;52.172;5.378;2022-10-17T15:50:10;10.03;;;8.07;;
7957;SDS011;4024;52.172;5.378;2022-10-17T15:52:38;8.63;;;7.73;;
7957;SDS011;4024;52.172;5.378;2022-10-17T15:55:05;10.47;;;7.83;;
7957;SDS011;4024;52.172;5.378;2022-10-17T15:57:33;11.47;;;7.73;;
7957;SDS011;4024;52.172;5.378;2022-10-17T16:00:03;10.23;;;7.33;;
7957;SDS011;4024;52.172;5.378;2022-10-17T16:02:36;9.23;;;8.33;;
7957;SDS011;4024;52.172;5.378;2022-10-17T16:05:04;8.67;;;7.80;;
7957;SDS011;4024;52.172;5.378;2022-10-17T16:07:42;10.00;;;8.30;;
7957;SDS011;4024;52.172;5.378;2022-10-17T16:10:10;7.93;;;7.13;;
7957;SDS011;4024;52.172;5.378;2022-10-17T16:12:37;8.60;;;7.60;;
7957;SDS011;4024;52.172;5.378;2022-10-17T16:15:06;8.50;;;7.70;;
7957;SDS011;4024;52.172;5.378;2022-10-17T16:17:37;9.93;;;7.43;;
7957;SDS011;4024;52.172;5.378;2022-10-17T16:20:02;9.50;;;8.37;;
7957;SDS011;4024;52.172;5.378;2022-10-17T16:22:30;8.73;;;7.80;;
7957;SDS011;4024;52.172;5.378;2022-10-17T16:25:00;9.50;;;7.30;;
7957;SDS011;4024;52.172;5.378;2022-10-17T16:27:31;11.50;;;7.50;;
7957;SDS011;4024;52.172;5.378;2022-10-17T16:29:57;10.53;;;7.67;;
7957;SDS011;4024;52.172;5.378;2022-10-17T16:32:23;9.33;;;7.50;;
7957;SDS011;4024;52.172;5.378;2022-10-17T16:34:48;9.10;;;7.33;;
7957;SDS011;4024;52.172;5.378;2022-10-17T16:37:14;9.20;;;7.67;;
7957;SDS011;4024;52.172;5.378;2022-10-17T16:39:39;10.07;;;7.67;;
7957;SDS011;4024;52.172;5.378;2022-10-17T16:42:05;12.77;;;7.70;;
7957;SDS011;4024;52.172;5.378;2022-10-17T16:44:31;8.93;;;7.47;;
7957;SDS011;4024;52.172;5.378;2022-10-17T16:46:56;9.17;;;7.27;;
7957;SDS011;4024;52.172;5.378;2022-10-17T16:49:22;9.37;;;7.70;;
7957;SDS011;4024;52.172;5.378;2022-10-17T16:51:47;9.37;;;7.73;;
7957;SDS011;4024;52.172;5.378;2022-10-17T16:54:13;8.67;;;7.40;;
7957;SDS011;4024;52.172;5.378;2022-10-17T16:56:38;8.73;;;7.17;;
7957;SDS011;4024;52.172;5.378;2022-10-17T16:59:06;8.10;;;6.77;;
7957;SDS011;4024;52.172;5.378;2022-10-17T17:01:33;9.53;;;7.13;;
7957;SDS011;4024;52.172;5.378;2022-10-17T17:03:58;12.50;;;6.70;;
7957;SDS011;4024;52.172;5.378;2022-10-17T17:06:26;10.60;;;6.63;;
7957;SDS011;4024;52.172;5.378;2022-10-17T17:08:53;7.27;;;6.50;;
7957;SDS011;4024;52.172;5.378;2022-10-17T17:11:20;9.23;;;6.47;;
7957;SDS011;4024;52.172;5.378;2022-10-17T17:13:46;9.60;;;7.43;;
7957;SDS011;4024;52.172;5.378;2022-10-17T17:16:13;8.80;;;6.83;;
7957;SDS011;4024;52.172;5.378;2022-10-17T17:18:41;12.03;;;7.07;;